aviador You're here:

SGES Decoded Metar

GUARANY in PARAGUAY
Report Time2018-07-20 06:00:00
UTC Time2018-07-20 06:15:27
Flight Rules vfr VFR
Wind330° at 06 kt
W.Decomp.*RWY 05: 2.5 kt HW 5.4 kt LCW
W.Rank330° ranks 26
Current wind is below 330° avg. (6.6)
Visibility9999 m
Phenomena:N/A
Clouds:N/A
Expected CloudBase > 2,400 ft AGL from Temp-Dew spread
CeilingNone
Temp21°C (ISA +12)
Dew Point15°C (69% RH)
AAT20.5°C
QNH1012 hPa
Density Alt4,393 ft
Elevation2,785 ft
Report Wrong Elevation
Raw Report
SGES 200600Z 33006KT CAVOK 21/15 Q1012=

Extra information for SGES:More info

Metar Taf Metar & Taf Last 4 Metars F.Rules Stats Wind Profile Meteogram Temp Stats Airport Information Weather charts Add Link Nearby VenuesMetar ALERT Operation Metar Decoded Social comments